sensor_id;sensor_type;location;lat;lon;timestamp;P1;durP1;ratioP1;P2;durP2;ratioP2
77432;SDS011;66752;48.576;8.876;2023-05-07T00:01:51;6.88;;;3.42;;
77432;SDS011;66752;48.576;8.876;2023-05-07T00:04:18;6.00;;;3.15;;
77432;SDS011;66752;48.576;8.876;2023-05-07T00:06:44;6.85;;;3.47;;
77432;SDS011;66752;48.576;8.876;2023-05-07T00:09:10;8.10;;;4.00;;
77432;SDS011;66752;48.576;8.876;2023-05-07T00:11:36;5.88;;;3.53;;
77432;SDS011;66752;48.576;8.876;2023-05-07T00:14:02;5.25;;;3.45;;
77432;SDS011;66752;48.576;8.876;2023-05-07T00:16:28;5.97;;;3.22;;
77432;SDS011;66752;48.576;8.876;2023-05-07T00:18:54;6.40;;;3.30;;
77432;SDS011;66752;48.576;8.876;2023-05-07T00:21:19;5.60;;;3.30;;
77432;SDS011;66752;48.576;8.876;2023-05-07T00:23:46;7.50;;;3.47;;
77432;SDS011;66752;48.576;8.876;2023-05-07T00:26:12;5.88;;;3.40;;
77432;SDS011;66752;48.576;8.876;2023-05-07T00:28:38;5.97;;;3.30;;
77432;SDS011;66752;48.576;8.876;2023-05-07T00:31:04;6.38;;;3.63;;
77432;SDS011;66752;48.576;8.876;2023-05-07T00:33:30;9.20;;;3.50;;
77432;SDS011;66752;48.576;8.876;2023-05-07T00:35:56;6.13;;;3.13;;
77432;SDS011;66752;48.576;8.876;2023-05-07T00:38:22;6.20;;;3.22;;
77432;SDS011;66752;48.576;8.876;2023-05-07T00:40:48;6.80;;;3.58;;
77432;SDS011;66752;48.576;8.876;2023-05-07T00:43:15;5.82;;;3.70;;
77432;SDS011;66752;48.576;8.876;2023-05-07T00:45:42;5.70;;;3.08;;
77432;SDS011;66752;48.576;8.876;2023-05-07T00:48:08;6.45;;;3.17;;
77432;SDS011;66752;48.576;8.876;2023-05-07T00:50:34;6.97;;;3.17;;
77432;SDS011;66752;48.576;8.876;2023-05-07T00:53:00;5.82;;;3.72;;
77432;SDS011;66752;48.576;8.876;2023-05-07T00:55:26;6.18;;;3.60;;
77432;SDS011;66752;48.576;8.876;2023-05-07T00:57:52;8.55;;;3.50;;
77432;SDS011;66752;48.576;8.876;2023-05-07T01:00:18;7.53;;;3.45;;
77432;SDS011;66752;48.576;8.876;2023-05-07T01:02:44;6.68;;;3.30;;
77432;SDS011;66752;48.576;8.876;2023-05-07T01:05:12;8.73;;;3.22;;
77432;SDS011;66752;48.576;8.876;2023-05-07T01:07:40;6.90;;;3.33;;
77432;SDS011;66752;48.576;8.876;2023-05-07T01:10:06;5.50;;;3.10;;
77432;SDS011;66752;48.576;8.876;2023-05-07T01:14:58;7.22;;;3.00;;
77432;SDS011;66752;48.576;8.876;2023-05-07T01:17:24;6.10;;;3.00;;
77432;SDS011;66752;48.576;8.876;2023-05-07T01:19:50;8.75;;;3.05;;
77432;SDS011;66752;48.576;8.876;2023-05-07T01:22:22;5.63;;;3.20;;
77432;SDS011;66752;48.576;8.876;2023-05-07T01:24:48;8.02;;;3.25;;
77432;SDS011;66752;48.576;8.876;2023-05-07T01:27:15;6.05;;;3.03;;
77432;SDS011;66752;48.576;8.876;2023-05-07T01:29:41;5.60;;;3.53;;
77432;SDS011;66752;48.576;8.876;2023-05-07T01:32:06;6.25;;;2.72;;
77432;SDS011;66752;48.576;8.876;2023-05-07T01:34:33;5.85;;;3.90;;
77432;SDS011;66752;48.576;8.876;2023-05-07T01:37:00;5.40;;;3.35;;
77432;SDS011;66752;48.576;8.876;2023-05-07T01:39:27;8.40;;;3.70;;
77432;SDS011;66752;48.576;8.876;2023-05-07T01:41:56;6.50;;;3.63;;
77432;SDS011;66752;48.576;8.876;2023-05-07T01:44:22;5.28;;;3.20;;
77432;SDS011;66752;48.576;8.876;2023-05-07T01:46:49;6.47;;;3.45;;
77432;SDS011;66752;48.576;8.876;2023-05-07T01:49:15;6.63;;;3.08;;
77432;SDS011;66752;48.576;8.876;2023-05-07T01:51:41;6.47;;;3.20;;
77432;SDS011;66752;48.576;8.876;2023-05-07T01:56:34;5.57;;;3.10;;
77432;SDS011;66752;48.576;8.876;2023-05-07T01:59:00;6.55;;;3.13;;
77432;SDS011;66752;48.576;8.876;2023-05-07T02:01:27;5.55;;;2.90;;
77432;SDS011;66752;48.576;8.876;2023-05-07T02:03:53;5.50;;;3.53;;
77432;SDS011;66752;48.576;8.876;2023-05-07T02:06:19;5.63;;;3.90;;
77432;SDS011;66752;48.576;8.876;2023-05-07T02:11:11;6.10;;;2.80;;
77432;SDS011;66752;48.576;8.876;2023-05-07T02:13:37;4.95;;;2.70;;
77432;SDS011;66752;48.576;8.876;2023-05-07T02:16:03;11.05;;;3.60;;
77432;SDS011;66752;48.576;8.876;2023-05-07T02:18:30;6.80;;;3.08;;
77432;SDS011;66752;48.576;8.876;2023-05-07T02:20:56;7.35;;;3.42;;
77432;SDS011;66752;48.576;8.876;2023-05-07T02:23:22;5.97;;;3.58;;
77432;SDS011;66752;48.576;8.876;2023-05-07T02:25:48;5.57;;;3.08;;
77432;SDS011;66752;48.576;8.876;2023-05-07T02:28:14;5.68;;;3.53;;
77432;SDS011;66752;48.576;8.876;2023-05-07T02:30:40;7.07;;;3.65;;
77432;SDS011;66752;48.576;8.876;2023-05-07T02:33:06;5.97;;;3.00;;
77432;SDS011;66752;48.576;8.876;2023-05-07T02:37:59;5.53;;;3.17;;
77432;SDS011;66752;48.576;8.876;2023-05-07T02:40:25;5.40;;;3.20;;
77432;SDS011;66752;48.576;8.876;2023-05-07T02:42:51;6.18;;;3.70;;
77432;SDS011;66752;48.576;8.876;2023-05-07T02:45:17;5.55;;;3.03;;
77432;SDS011;66752;48.576;8.876;2023-05-07T02:47:43;5.32;;;3.15;;
77432;SDS011;66752;48.576;8.876;2023-05-07T02:50:09;6.07;;;3.78;;
77432;SDS011;66752;48.576;8.876;2023-05-07T02:52:35;7.20;;;3.55;;
77432;SDS011;66752;48.576;8.876;2023-05-07T02:55:01;7.97;;;3.70;;
77432;SDS011;66752;48.576;8.876;2023-05-07T02:57:27;6.00;;;3.63;;
77432;SDS011;66752;48.576;8.876;2023-05-07T02:59:53;5.50;;;3.28;;
77432;SDS011;66752;48.576;8.876;2023-05-07T03:02:19;6.05;;;3.20;;
77432;SDS011;66752;48.576;8.876;2023-05-07T03:04:45;9.25;;;3.50;;
77432;SDS011;66752;48.576;8.876;2023-05-07T03:07:11;5.55;;;3.72;;
77432;SDS011;66752;48.576;8.876;2023-05-07T03:09:37;7.00;;;3.28;;
77432;SDS011;66752;48.576;8.876;2023-05-07T03:12:03;5.60;;;3.50;;
77432;SDS011;66752;48.576;8.876;2023-05-07T03:14:29;6.80;;;3.45;;
77432;SDS011;66752;48.576;8.876;2023-05-07T03:16:55;5.78;;;3.53;;
77432;SDS011;66752;48.576;8.876;2023-05-07T03:19:21;6.25;;;3.33;;
77432;SDS011;66752;48.576;8.876;2023-05-07T03:21:47;6.03;;;3.35;;
77432;SDS011;66752;48.576;8.876;2023-05-07T03:24:13;5.35;;;3.05;;
77432;SDS011;66752;48.576;8.876;2023-05-07T03:26:39;5.57;;;3.35;;
77432;SDS011;66752;48.576;8.876;2023-05-07T03:29:05;6.47;;;3.70;;
77432;SDS011;66752;48.576;8.876;2023-05-07T03:31:31;7.22;;;3.33;;
77432;SDS011;66752;48.576;8.876;2023-05-07T03:33:57;5.97;;;3.50;;
77432;SDS011;66752;48.576;8.876;2023-05-07T03:36:23;6.07;;;3.30;;
77432;SDS011;66752;48.576;8.876;2023-05-07T03:38:51;5.63;;;3.28;;
77432;SDS011;66752;48.576;8.876;2023-05-07T03:41:17;6.00;;;3.15;;
77432;SDS011;66752;48.576;8.876;2023-05-07T03:43:43;5.18;;;2.80;;
77432;SDS011;66752;48.576;8.876;2023-05-07T03:46:09;6.25;;;2.80;;
77432;SDS011;66752;48.576;8.876;2023-05-07T03:48:35;5.32;;;3.10;;
77432;SDS011;66752;48.576;8.876;2023-05-07T03:51:01;6.03;;;3.25;;
77432;SDS011;66752;48.576;8.876;2023-05-07T03:53:27;6.22;;;2.90;;
77432;SDS011;66752;48.576;8.876;2023-05-07T03:55:53;5.20;;;3.10;;
77432;SDS011;66752;48.576;8.876;2023-05-07T03:58:19;5.20;;;3.13;;
77432;SDS011;66752;48.576;8.876;2023-05-07T04:00:45;6.25;;;3.13;;
77432;SDS011;66752;48.576;8.876;2023-05-07T04:03:11;8.60;;;3.60;;
77432;SDS011;66752;48.576;8.876;2023-05-07T04:05:37;7.22;;;3.72;;
77432;SDS011;66752;48.576;8.876;2023-05-07T04:08:03;6.18;;;3.60;;
77432;SDS011;66752;48.576;8.876;2023-05-07T04:10:29;5.65;;;3.50;;
77432;SDS011;66752;48.576;8.876;2023-05-07T04:12:55;4.85;;;3.13;;
77432;SDS011;66752;48.576;8.876;2023-05-07T04:15:22;5.53;;;3.22;;
77432;SDS011;66752;48.576;8.876;2023-05-07T04:17:48;4.82;;;2.92;;
77432;SDS011;66752;48.576;8.876;2023-05-07T04:20:14;4.63;;;2.90;;
77432;SDS011;66752;48.576;8.876;2023-05-07T04:22:41;5.45;;;3.38;;
77432;SDS011;66752;48.576;8.876;2023-05-07T04:25:07;5.93;;;3.35;;
77432;SDS011;66752;48.576;8.876;2023-05-07T04:27:34;5.22;;;3.10;;
77432;SDS011;66752;48.576;8.876;2023-05-07T04:30:00;6.32;;;3.45;;
77432;SDS011;66752;48.576;8.876;2023-05-07T04:32:27;6.32;;;3.00;;
77432;SDS011;66752;48.576;8.876;2023-05-07T04:37:20;5.63;;;3.03;;
77432;SDS011;66752;48.576;8.876;2023-05-07T04:39:46;6.68;;;3.30;;
77432;SDS011;66752;48.576;8.876;2023-05-07T04:42:15;6.28;;;3.25;;
77432;SDS011;66752;48.576;8.876;2023-05-07T04:44:41;6.25;;;3.60;;
77432;SDS011;66752;48.576;8.876;2023-05-07T04:47:07;6.50;;;3.35;;
77432;SDS011;66752;48.576;8.876;2023-05-07T04:49:33;5.75;;;3.30;;
77432;SDS011;66752;48.576;8.876;2023-05-07T04:51:59;6.03;;;3.58;;
77432;SDS011;66752;48.576;8.876;2023-05-07T04:54:26;6.03;;;3.55;;
77432;SDS011;66752;48.576;8.876;2023-05-07T04:56:52;5.25;;;3.35;;
77432;SDS011;66752;48.576;8.876;2023-05-07T04:59:18;5.60;;;3.40;;
77432;SDS011;66752;48.576;8.876;2023-05-07T05:01:43;5.97;;;3.60;;
77432;SDS011;66752;48.576;8.876;2023-05-07T05:04:09;7.97;;;3.72;;
77432;SDS011;66752;48.576;8.876;2023-05-07T05:06:35;9.23;;;3.83;;
77432;SDS011;66752;48.576;8.876;2023-05-07T05:09:01;8.38;;;3.72;;
77432;SDS011;66752;48.576;8.876;2023-05-07T05:11:29;9.10;;;4.03;;
77432;SDS011;66752;48.576;8.876;2023-05-07T05:13:55;6.85;;;3.53;;
77432;SDS011;66752;48.576;8.876;2023-05-07T05:16:22;6.28;;;3.20;;
77432;SDS011;66752;48.576;8.876;2023-05-07T05:18:48;5.32;;;2.97;;
77432;SDS011;66752;48.576;8.876;2023-05-07T05:21:14;6.07;;;3.60;;
77432;SDS011;66752;48.576;8.876;2023-05-07T05:23:40;8.35;;;3.60;;
77432;SDS011;66752;48.576;8.876;2023-05-07T05:26:06;6.38;;;3.40;;
77432;SDS011;66752;48.576;8.876;2023-05-07T05:28:32;6.85;;;3.90;;
77432;SDS011;66752;48.576;8.876;2023-05-07T05:30:58;6.28;;;3.95;;
77432;SDS011;66752;48.576;8.876;2023-05-07T05:33:24;6.60;;;3.38;;
77432;SDS011;66752;48.576;8.876;2023-05-07T05:35:50;7.57;;;3.92;;
77432;SDS011;66752;48.576;8.876;2023-05-07T05:38:16;6.20;;;4.10;;
77432;SDS011;66752;48.576;8.876;2023-05-07T05:40:42;7.63;;;4.00;;
77432;SDS011;66752;48.576;8.876;2023-05-07T05:43:08;8.10;;;3.92;;
77432;SDS011;66752;48.576;8.876;2023-05-07T05:45:34;6.05;;;4.07;;
77432;SDS011;66752;48.576;8.876;2023-05-07T05:48:00;6.90;;;4.25;;
77432;SDS011;66752;48.576;8.876;2023-05-07T05:50:26;6.38;;;3.97;;
77432;SDS011;66752;48.576;8.876;2023-05-07T05:52:52;5.85;;;3.90;;
77432;SDS011;66752;48.576;8.876;2023-05-07T05:55:18;5.68;;;3.72;;
77432;SDS011;66752;48.576;8.876;2023-05-07T05:57:44;7.40;;;4.40;;
77432;SDS011;66752;48.576;8.876;2023-05-07T06:00:11;6.43;;;4.00;;
77432;SDS011;66752;48.576;8.876;2023-05-07T06:02:37;6.32;;;4.13;;
77432;SDS011;66752;48.576;8.876;2023-05-07T06:05:03;6.10;;;3.90;;
77432;SDS011;66752;48.576;8.876;2023-05-07T06:07:30;6.35;;;3.55;;
77432;SDS011;66752;48.576;8.876;2023-05-07T06:09:56;8.77;;;4.10;;
77432;SDS011;66752;48.576;8.876;2023-05-07T06:12:21;7.15;;;4.15;;
77432;SDS011;66752;48.576;8.876;2023-05-07T06:14:47;7.30;;;4.10;;
77432;SDS011;66752;48.576;8.876;2023-05-07T06:17:14;7.95;;;3.95;;
77432;SDS011;66752;48.576;8.876;2023-05-07T06:19:40;7.57;;;4.03;;
77432;SDS011;66752;48.576;8.876;2023-05-07T06:22:06;7.05;;;4.38;;
77432;SDS011;66752;48.576;8.876;2023-05-07T06:24:32;8.60;;;4.65;;
77432;SDS011;66752;48.576;8.876;2023-05-07T06:26:58;9.13;;;3.95;;
77432;SDS011;66752;48.576;8.876;2023-05-07T06:29:24;8.35;;;4.13;;
77432;SDS011;66752;48.576;8.876;2023-05-07T06:31:51;5.82;;;4.10;;
77432;SDS011;66752;48.576;8.876;2023-05-07T06:34:17;8.98;;;5.28;;
77432;SDS011;66752;48.576;8.876;2023-05-07T06:36:43;6.72;;;4.50;;
77432;SDS011;66752;48.576;8.876;2023-05-07T06:39:09;6.15;;;4.15;;
77432;SDS011;66752;48.576;8.876;2023-05-07T06:41:35;6.22;;;4.18;;
77432;SDS011;66752;48.576;8.876;2023-05-07T06:44:02;6.35;;;4.22;;
77432;SDS011;66752;48.576;8.876;2023-05-07T06:46:28;6.80;;;4.85;;
77432;SDS011;66752;48.576;8.876;2023-05-07T06:48:54;9.65;;;4.70;;
77432;SDS011;66752;48.576;8.876;2023-05-07T06:51:21;8.05;;;4.57;;
77432;SDS011;66752;48.576;8.876;2023-05-07T06:53:56;7.78;;;4.90;;
77432;SDS011;66752;48.576;8.876;2023-05-07T06:56:22;7.22;;;4.60;;
77432;SDS011;66752;48.576;8.876;2023-05-07T06:58:49;7.75;;;4.82;;
77432;SDS011;66752;48.576;8.876;2023-05-07T07:01:15;7.40;;;4.85;;
77432;SDS011;66752;48.576;8.876;2023-05-07T07:03:41;6.70;;;4.40;;
77432;SDS011;66752;48.576;8.876;2023-05-07T07:06:07;7.22;;;4.22;;
77432;SDS011;66752;48.576;8.876;2023-05-07T07:08:33;7.07;;;4.43;;
77432;SDS011;66752;48.576;8.876;2023-05-07T07:10:59;7.72;;;4.35;;
77432;SDS011;66752;48.576;8.876;2023-05-07T07:13:25;7.38;;;4.75;;
77432;SDS011;66752;48.576;8.876;2023-05-07T07:15:51;9.70;;;5.13;;
77432;SDS011;66752;48.576;8.876;2023-05-07T07:18:18;7.22;;;4.60;;
77432;SDS011;66752;48.576;8.876;2023-05-07T07:20:45;7.50;;;4.65;;
77432;SDS011;66752;48.576;8.876;2023-05-07T07:23:11;6.00;;;4.35;;
77432;SDS011;66752;48.576;8.876;2023-05-07T07:25:37;6.07;;;4.40;;
77432;SDS011;66752;48.576;8.876;2023-05-07T07:28:03;7.43;;;3.90;;
77432;SDS011;66752;48.576;8.876;2023-05-07T07:30:29;8.10;;;4.32;;
77432;SDS011;66752;48.576;8.876;2023-05-07T07:32:55;7.80;;;4.50;;
77432;SDS011;66752;48.576;8.876;2023-05-07T07:35:27;6.45;;;4.25;;
77432;SDS011;66752;48.576;8.876;2023-05-07T07:37:52;7.20;;;4.47;;
77432;SDS011;66752;48.576;8.876;2023-05-07T07:40:18;5.50;;;3.70;;
77432;SDS011;66752;48.576;8.876;2023-05-07T07:42:45;6.03;;;3.60;;
77432;SDS011;66752;48.576;8.876;2023-05-07T07:45:11;7.15;;;4.10;;
77432;SDS011;66752;48.576;8.876;2023-05-07T07:47:37;7.03;;;3.95;;
77432;SDS011;66752;48.576;8.876;2023-05-07T07:50:03;6.28;;;4.13;;
77432;SDS011;66752;48.576;8.876;2023-05-07T07:52:30;6.65;;;4.43;;
77432;SDS011;66752;48.576;8.876;2023-05-07T07:54:56;8.38;;;4.47;;
77432;SDS011;66752;48.576;8.876;2023-05-07T07:57:22;6.63;;;3.80;;
77432;SDS011;66752;48.576;8.876;2023-05-07T07:59:48;8.48;;;4.18;;
77432;SDS011;66752;48.576;8.876;2023-05-07T08:02:15;8.50;;;3.60;;
77432;SDS011;66752;48.576;8.876;2023-05-07T08:04:41;6.00;;;4.00;;
77432;SDS011;66752;48.576;8.876;2023-05-07T08:07:10;7.75;;;3.80;;
77432;SDS011;66752;48.576;8.876;2023-05-07T08:09:37;8.35;;;4.40;;
77432;SDS011;66752;48.576;8.876;2023-05-07T08:12:04;14.07;;;3.95;;
77432;SDS011;66752;48.576;8.876;2023-05-07T08:14:31;6.85;;;4.45;;
77432;SDS011;66752;48.576;8.876;2023-05-07T08:16:57;6.55;;;4.00;;
77432;SDS011;66752;48.576;8.876;2023-05-07T08:19:23;6.97;;;4.70;;
77432;SDS011;66752;48.576;8.876;2023-05-07T08:21:49;7.80;;;4.78;;
77432;SDS011;66752;48.576;8.876;2023-05-07T08:24:15;8.13;;;4.68;;
77432;SDS011;66752;48.576;8.876;2023-05-07T08:29:08;8.23;;;4.95;;
77432;SDS011;66752;48.576;8.876;2023-05-07T08:31:33;5.35;;;3.45;;
77432;SDS011;66752;48.576;8.876;2023-05-07T08:33:59;5.40;;;3.47;;
77432;SDS011;66752;48.576;8.876;2023-05-07T08:36:25;7.85;;;4.00;;
77432;SDS011;66752;48.576;8.876;2023-05-07T08:38:52;6.28;;;4.28;;
77432;SDS011;66752;48.576;8.876;2023-05-07T08:41:18;5.80;;;3.60;;
77432;SDS011;66752;48.576;8.876;2023-05-07T08:43:49;7.50;;;4.00;;
77432;SDS011;66752;48.576;8.876;2023-05-07T08:46:21;8.05;;;3.72;;
77432;SDS011;66752;48.576;8.876;2023-05-07T08:48:48;5.75;;;3.88;;
77432;SDS011;66752;48.576;8.876;2023-05-07T08:51:16;6.80;;;3.75;;
77432;SDS011;66752;48.576;8.876;2023-05-07T08:53:42;5.72;;;3.85;;
77432;SDS011;66752;48.576;8.876;2023-05-07T08:56:08;6.40;;;4.50;;
77432;SDS011;66752;48.576;8.876;2023-05-07T08:58:35;7.40;;;4.47;;
77432;SDS011;66752;48.576;8.876;2023-05-07T09:01:02;7.55;;;3.88;;
77432;SDS011;66752;48.576;8.876;2023-05-07T09:03:30;7.18;;;3.92;;
77432;SDS011;66752;48.576;8.876;2023-05-07T09:05:56;5.57;;;3.42;;
77432;SDS011;66752;48.576;8.876;2023-05-07T09:08:24;5.47;;;3.67;;
77432;SDS011;66752;48.576;8.876;2023-05-07T09:10:51;5.57;;;3.75;;
77432;SDS011;66752;48.576;8.876;2023-05-07T09:13:17;6.07;;;3.67;;
77432;SDS011;66752;48.576;8.876;2023-05-07T09:15:44;8.10;;;3.50;;
77432;SDS011;66752;48.576;8.876;2023-05-07T09:18:10;6.65;;;3.53;;
77432;SDS011;66752;48.576;8.876;2023-05-07T09:20:36;5.88;;;3.42;;
77432;SDS011;66752;48.576;8.876;2023-05-07T09:23:02;7.72;;;3.50;;
77432;SDS011;66752;48.576;8.876;2023-05-07T09:25:29;6.07;;;3.42;;
77432;SDS011;66752;48.576;8.876;2023-05-07T09:27:55;5.50;;;3.30;;
77432;SDS011;66752;48.576;8.876;2023-05-07T09:30:21;6.18;;;3.60;;
77432;SDS011;66752;48.576;8.876;2023-05-07T09:32:47;5.78;;;2.90;;
77432;SDS011;66752;48.576;8.876;2023-05-07T09:35:17;7.80;;;3.00;;
77432;SDS011;66752;48.576;8.876;2023-05-07T09:37:43;5.32;;;3.38;;
77432;SDS011;66752;48.576;8.876;2023-05-07T09:42:35;6.45;;;3.35;;
77432;SDS011;66752;48.576;8.876;2023-05-07T09:45:01;5.53;;;3.25;;
77432;SDS011;66752;48.576;8.876;2023-05-07T09:47:27;7.57;;;3.45;;
77432;SDS011;66752;48.576;8.876;2023-05-07T09:49:57;5.38;;;3.42;;
77432;SDS011;66752;48.576;8.876;2023-05-07T09:52:25;6.13;;;3.58;;
77432;SDS011;66752;48.576;8.876;2023-05-07T09:54:58;8.70;;;4.03;;
77432;SDS011;66752;48.576;8.876;2023-05-07T09:57:25;5.95;;;3.42;;
77432;SDS011;66752;48.576;8.876;2023-05-07T09:59:51;5.95;;;3.55;;
77432;SDS011;66752;48.576;8.876;2023-05-07T10:04:43;6.00;;;3.17;;
77432;SDS011;66752;48.576;8.876;2023-05-07T10:07:10;6.78;;;2.90;;
77432;SDS011;66752;48.576;8.876;2023-05-07T10:09:36;5.03;;;3.25;;
77432;SDS011;66752;48.576;8.876;2023-05-07T10:12:03;7.72;;;3.15;;
77432;SDS011;66752;48.576;8.876;2023-05-07T10:14:30;4.40;;;2.85;;
77432;SDS011;66752;48.576;8.876;2023-05-07T10:16:56;5.57;;;2.60;;
77432;SDS011;66752;48.576;8.876;2023-05-07T10:19:22;7.38;;;3.00;;
77432;SDS011;66752;48.576;8.876;2023-05-07T10:21:54;5.82;;;2.60;;
77432;SDS011;66752;48.576;8.876;2023-05-07T10:24:24;5.88;;;3.20;;
77432;SDS011;66752;48.576;8.876;2023-05-07T10:26:51;6.88;;;2.67;;
77432;SDS011;66752;48.576;8.876;2023-05-07T10:31:50;5.55;;;2.58;;
77432;SDS011;66752;48.576;8.876;2023-05-07T10:34:23;6.63;;;2.65;;
77432;SDS011;66752;48.576;8.876;2023-05-07T10:36:50;4.57;;;2.30;;
77432;SDS011;66752;48.576;8.876;2023-05-07T10:39:17;5.28;;;2.35;;
77432;SDS011;66752;48.576;8.876;2023-05-07T10:41:44;4.80;;;2.92;;
77432;SDS011;66752;48.576;8.876;2023-05-07T10:46:36;4.93;;;2.53;;
77432;SDS011;66752;48.576;8.876;2023-05-07T10:51:30;3.90;;;1.92;;
77432;SDS011;66752;48.576;8.876;2023-05-07T10:56:42;5.95;;;2.05;;
77432;SDS011;66752;48.576;8.876;2023-05-07T11:04:18;5.32;;;2.92;;
77432;SDS011;66752;48.576;8.876;2023-05-07T11:13:03;5.63;;;2.75;;
77432;SDS011;66752;48.576;8.876;2023-05-07T11:15:06;9.50;;;2.83;;
77432;SDS011;66752;48.576;8.876;2023-05-07T11:17:32;4.03;;;2.50;;
77432;SDS011;66752;48.576;8.876;2023-05-07T11:19:59;7.00;;;2.70;;
77432;SDS011;66752;48.576;8.876;2023-05-07T11:25:01;5.82;;;2.40;;
77432;SDS011;66752;48.576;8.876;2023-05-07T11:27:27;6.72;;;2.78;;
77432;SDS011;66752;48.576;8.876;2023-05-07T11:29:54;4.55;;;2.45;;
77432;SDS011;66752;48.576;8.876;2023-05-07T11:32:23;4.05;;;2.17;;
77432;SDS011;66752;48.576;8.876;2023-05-07T11:34:53;6.03;;;2.50;;
77432;SDS011;66752;48.576;8.876;2023-05-07T11:37:19;6.07;;;2.42;;
77432;SDS011;66752;48.576;8.876;2023-05-07T11:39:45;6.15;;;2.75;;
77432;SDS011;66752;48.576;8.876;2023-05-07T11:44:47;8.52;;;2.47;;
77432;SDS011;66752;48.576;8.876;2023-05-07T11:47:17;4.45;;;2.20;;
77432;SDS011;66752;48.576;8.876;2023-05-07T11:49:45;4.63;;;2.65;;
77432;SDS011;66752;48.576;8.876;2023-05-07T11:52:12;5.13;;;2.47;;
77432;SDS011;66752;48.576;8.876;2023-05-07T11:54:38;4.75;;;2.67;;
77432;SDS011;66752;48.576;8.876;2023-05-07T11:57:04;3.97;;;2.10;;
77432;SDS011;66752;48.576;8.876;2023-05-07T11:59:41;4.43;;;2.20;;
77432;SDS011;66752;48.576;8.876;2023-05-07T12:02:09;5.63;;;2.20;;
77432;SDS011;66752;48.576;8.876;2023-05-07T12:04:35;4.53;;;2.20;;
77432;SDS011;66752;48.576;8.876;2023-05-07T12:07:01;4.28;;;2.13;;
77432;SDS011;66752;48.576;8.876;2023-05-07T12:09:27;4.97;;;2.00;;
77432;SDS011;66752;48.576;8.876;2023-05-07T12:11:53;4.05;;;1.67;;
77432;SDS011;66752;48.576;8.876;2023-05-07T12:14:21;4.82;;;2.65;;
77432;SDS011;66752;48.576;8.876;2023-05-07T12:16:47;4.05;;;2.05;;
77432;SDS011;66752;48.576;8.876;2023-05-07T12:19:13;3.67;;;1.73;;
77432;SDS011;66752;48.576;8.876;2023-05-07T12:24:05;4.47;;;2.60;;
77432;SDS011;66752;48.576;8.876;2023-05-07T12:26:31;4.50;;;2.15;;
77432;SDS011;66752;48.576;8.876;2023-05-07T12:28:57;4.18;;;2.20;;
77432;SDS011;66752;48.576;8.876;2023-05-07T12:33:49;5.75;;;2.30;;
77432;SDS011;66752;48.576;8.876;2023-05-07T12:36:15;5.15;;;2.65;;
77432;SDS011;66752;48.576;8.876;2023-05-07T12:38:41;5.47;;;2.65;;
77432;SDS011;66752;48.576;8.876;2023-05-07T12:41:08;4.45;;;2.38;;
77432;SDS011;66752;48.576;8.876;2023-05-07T12:43:35;4.38;;;2.67;;
77432;SDS011;66752;48.576;8.876;2023-05-07T12:48:27;5.38;;;2.85;;
77432;SDS011;66752;48.576;8.876;2023-05-07T12:50:54;5.78;;;2.17;;
77432;SDS011;66752;48.576;8.876;2023-05-07T12:53:21;7.75;;;2.83;;
77432;SDS011;66752;48.576;8.876;2023-05-07T12:55:48;8.43;;;3.50;;
77432;SDS011;66752;48.576;8.876;2023-05-07T12:58:18;11.63;;;4.07;;
77432;SDS011;66752;48.576;8.876;2023-05-07T13:00:45;9.00;;;3.10;;
77432;SDS011;66752;48.576;8.876;2023-05-07T13:03:16;11.38;;;3.60;;
77432;SDS011;66752;48.576;8.876;2023-05-07T13:05:46;7.32;;;2.92;;
77432;SDS011;66752;48.576;8.876;2023-05-07T13:08:12;5.90;;;2.28;;
77432;SDS011;66752;48.576;8.876;2023-05-07T13:10:38;5.78;;;3.67;;
77432;SDS011;66752;48.576;8.876;2023-05-07T13:13:04;6.55;;;3.17;;
77432;SDS011;66752;48.576;8.876;2023-05-07T13:15:30;5.05;;;2.47;;
77432;SDS011;66752;48.576;8.876;2023-05-07T13:17:55;8.23;;;3.50;;
77432;SDS011;66752;48.576;8.876;2023-05-07T13:20:21;8.52;;;3.22;;
77432;SDS011;66752;48.576;8.876;2023-05-07T13:22:47;5.95;;;3.25;;
77432;SDS011;66752;48.576;8.876;2023-05-07T13:25:13;6.20;;;2.78;;
77432;SDS011;66752;48.576;8.876;2023-05-07T13:30:06;8.40;;;3.47;;
77432;SDS011;66752;48.576;8.876;2023-05-07T13:32:32;9.25;;;3.75;;
77432;SDS011;66752;48.576;8.876;2023-05-07T13:34:58;7.20;;;3.47;;
77432;SDS011;66752;48.576;8.876;2023-05-07T13:37:24;10.23;;;3.53;;
77432;SDS011;66752;48.576;8.876;2023-05-07T13:39:50;5.45;;;2.80;;
77432;SDS011;66752;48.576;8.876;2023-05-07T13:42:16;5.65;;;3.22;;
77432;SDS011;66752;48.576;8.876;2023-05-07T13:44:42;6.28;;;3.00;;
77432;SDS011;66752;48.576;8.876;2023-05-07T13:47:08;8.70;;;3.72;;
77432;SDS011;66752;48.576;8.876;2023-05-07T13:49:34;7.72;;;3.53;;
77432;SDS011;66752;48.576;8.876;2023-05-07T13:52:00;7.45;;;3.58;;
77432;SDS011;66752;48.576;8.876;2023-05-07T13:54:26;8.52;;;3.05;;
77432;SDS011;66752;48.576;8.876;2023-05-07T13:56:52;7.60;;;3.22;;
77432;SDS011;66752;48.576;8.876;2023-05-07T13:59:18;6.20;;;3.90;;
77432;SDS011;66752;48.576;8.876;2023-05-07T14:01:44;6.55;;;3.13;;
77432;SDS011;66752;48.576;8.876;2023-05-07T14:04:10;9.55;;;3.22;;
77432;SDS011;66752;48.576;8.876;2023-05-07T14:06:36;7.85;;;4.35;;
77432;SDS011;66752;48.576;8.876;2023-05-07T14:09:02;5.63;;;3.25;;
77432;SDS011;66752;48.576;8.876;2023-05-07T14:11:29;5.25;;;3.00;;
77432;SDS011;66752;48.576;8.876;2023-05-07T14:13:54;7.25;;;4.13;;
77432;SDS011;66752;48.576;8.876;2023-05-07T14:16:21;6.57;;;4.47;;
77432;SDS011;66752;48.576;8.876;2023-05-07T14:18:47;6.43;;;3.45;;
77432;SDS011;66752;48.576;8.876;2023-05-07T14:21:13;7.95;;;3.50;;
77432;SDS011;66752;48.576;8.876;2023-05-07T14:23:40;7.05;;;3.92;;
77432;SDS011;66752;48.576;8.876;2023-05-07T14:26:05;18.40;;;10.50;;
77432;SDS011;66752;48.576;8.876;2023-05-07T14:28:31;10.82;;;5.68;;
77432;SDS011;66752;48.576;8.876;2023-05-07T14:30:57;5.53;;;2.53;;
77432;SDS011;66752;48.576;8.876;2023-05-07T14:33:24;8.20;;;4.15;;
77432;SDS011;66752;48.576;8.876;2023-05-07T14:35:50;20.85;;;10.82;;
77432;SDS011;66752;48.576;8.876;2023-05-07T14:38:16;13.25;;;11.93;;
77432;SDS011;66752;48.576;8.876;2023-05-07T14:40:42;8.00;;;3.25;;
77432;SDS011;66752;48.576;8.876;2023-05-07T14:43:08;5.45;;;3.63;;
77432;SDS011;66752;48.576;8.876;2023-05-07T14:45:34;6.20;;;3.28;;
77432;SDS011;66752;48.576;8.876;2023-05-07T14:48:00;8.18;;;2.88;;
77432;SDS011;66752;48.576;8.876;2023-05-07T14:50:26;5.80;;;2.75;;
77432;SDS011;66752;48.576;8.876;2023-05-07T14:52:52;5.05;;;2.88;;
77432;SDS011;66752;48.576;8.876;2023-05-07T14:55:17;5.25;;;2.80;;
77432;SDS011;66752;48.576;8.876;2023-05-07T14:57:43;7.03;;;3.30;;
77432;SDS011;66752;48.576;8.876;2023-05-07T15:00:10;4.85;;;3.13;;
77432;SDS011;66752;48.576;8.876;2023-05-07T15:02:36;6.13;;;3.03;;
77432;SDS011;66752;48.576;8.876;2023-05-07T15:05:02;7.28;;;3.00;;
77432;SDS011;66752;48.576;8.876;2023-05-07T15:09:54;6.43;;;2.88;;
77432;SDS011;66752;48.576;8.876;2023-05-07T15:12:20;5.07;;;2.97;;
77432;SDS011;66752;48.576;8.876;2023-05-07T15:14:46;6.68;;;2.90;;
77432;SDS011;66752;48.576;8.876;2023-05-07T15:17:12;4.90;;;2.60;;
77432;SDS011;66752;48.576;8.876;2023-05-07T15:19:39;6.93;;;2.83;;
77432;SDS011;66752;48.576;8.876;2023-05-07T15:22:05;4.00;;;1.85;;
77432;SDS011;66752;48.576;8.876;2023-05-07T15:24:31;5.75;;;2.17;;
77432;SDS011;66752;48.576;8.876;2023-05-07T15:26:57;4.05;;;2.08;;
77432;SDS011;66752;48.576;8.876;2023-05-07T15:29:23;4.28;;;2.03;;
77432;SDS011;66752;48.576;8.876;2023-05-07T15:31:50;4.35;;;1.90;;
77432;SDS011;66752;48.576;8.876;2023-05-07T15:34:16;4.18;;;1.95;;
77432;SDS011;66752;48.576;8.876;2023-05-07T15:36:42;3.72;;;1.90;;
77432;SDS011;66752;48.576;8.876;2023-05-07T15:39:08;4.70;;;2.00;;
77432;SDS011;66752;48.576;8.876;2023-05-07T15:41:35;3.78;;;1.75;;